Grizzly Flats, California
Current Conditions -  °F | °C
As of 3:55 AM on Thursday 27 Nov 2014 (Local Time) from KPVF Reporting Station
Clear Clear  
Wind Chill: 15°   Ceiling: Unl
Heat Index: 15°   Visibility: 10mi
Dew Point: -1°   Wind: 0mph
Humidity: 34%   Direction: NA
Pressure: 30.24"   Gusts: NA
Location:  38.63°N, 120.55°W
Report Text: KPVF 271155Z AUTO 00000KT 10SM CLR 15/M01 A3024 RMK AO1
Loading
Personal Weather Stations






























Interactive Weather Map New forecast layout! Learn more

10-Day Weather Forecast

Advertisements
Track Severe Weather on mobile